createdAt,value
2023-01-07T00:02:55.615Z,101799.97
2023-01-07T00:04:57.276Z,101798.41
2023-01-07T00:06:59.144Z,101797.56
2023-01-07T00:09:04.759Z,101795.03
2023-01-07T00:11:08.936Z,101802.13
2023-01-07T00:13:10.544Z,101805.97
2023-01-07T00:15:12.099Z,101805.97
2023-01-07T00:17:15.814Z,101806.28
2023-01-07T00:19:19.101Z,101797.50
2023-01-07T00:21:24.390Z,101790.22
2023-01-07T00:23:26.515Z,101784.13
2023-01-07T00:25:28.932Z,101791.38
2023-01-07T00:27:30.605Z,101795.09
2023-01-07T00:29:33.985Z,101785.44
2023-01-07T00:31:38.090Z,101789.00
2023-01-07T00:33:40.962Z,101780.19
2023-01-07T00:35:43.914Z,101785.59
2023-01-07T00:37:45.475Z,101781.22
2023-01-07T00:39:47.054Z,101774.25
2023-01-07T00:41:50.443Z,101786.06
2023-01-07T00:43:52.122Z,101779.81
2023-01-07T00:45:53.810Z,101775.41
2023-01-07T00:47:55.720Z,101775.59
2023-01-07T00:49:57.208Z,101777.44
2023-01-07T00:52:00.156Z,101791.94
2023-01-07T00:54:01.633Z,101781.28
2023-01-07T00:56:03.325Z,101787.69
2023-01-07T00:58:05.877Z,101784.28
2023-01-07T01:00:08.284Z,101790.41
2023-01-07T01:02:10.068Z,101789.69
2023-01-07T01:04:11.808Z,101783.44
2023-01-07T01:06:15.652Z,101792.56
2023-01-07T01:08:19.144Z,101792.56
2023-01-07T01:10:21.021Z,101797.09
2023-01-07T01:12:22.912Z,101786.63
2023-01-07T01:14:24.608Z,101785.91
2023-01-07T01:16:26.275Z,101790.44
2023-01-07T01:18:27.913Z,101787.75
2023-01-07T01:20:29.438Z,101791.44
2023-01-07T01:22:30.963Z,101792.47
2023-01-07T01:24:33.882Z,101789.78
2023-01-07T01:26:35.653Z,101788.91
2023-01-07T01:28:37.904Z,101788.91
2023-01-07T01:30:39.494Z,101784.47
2023-01-07T01:32:41.004Z,101789.88
2023-01-07T01:34:42.596Z,101783.63
2023-01-07T01:36:44.199Z,101790.03
2023-01-07T01:38:45.681Z,101797.13
2023-01-07T01:40:48.885Z,101781.78
2023-01-07T01:42:50.517Z,101792.56
2023-01-07T01:44:53.723Z,101792.56
2023-01-07T01:46:55.660Z,101794.44
2023-01-07T01:49:02.544Z,101798.84
2023-01-07T01:51:04.458Z,101801.53
2023-01-07T01:53:12.097Z,101797.88
2023-01-07T01:55:18.960Z,101787.94
2023-01-07T01:57:25.188Z,101785.22
2023-01-07T01:59:32.920Z,101785.22
2023-01-07T02:01:35.822Z,101783.34
2023-01-07T02:06:37.443Z,101790.44
2023-01-07T02:08:39.129Z,101795.84
2023-01-07T02:10:40.886Z,101793.16
2023-01-07T02:12:57.070Z,101795.84
2023-01-07T02:15:11.113Z,101793.88
2023-01-07T02:17:19.480Z,101794.00
2023-01-07T02:19:55.096Z,101792.84
2023-01-07T02:22:04.602Z,101791.16
2023-01-07T02:24:47.843Z,101791.00
2023-01-07T02:27:09.015Z,101780.34
2023-01-07T02:29:48.843Z,101786.63
2023-01-07T02:32:09.667Z,101784.06
2023-01-07T02:34:18.815Z,101786.91
2023-01-07T02:36:35.337Z,101777.94
2023-01-07T02:38:49.301Z,101778.78
2023-01-07T02:41:00.631Z,101777.13
2023-01-07T02:43:13.881Z,101768.16
2023-01-07T02:45:24.077Z,101773.56
2023-01-07T02:47:32.230Z,101781.66
2023-01-07T02:49:36.591Z,101773.56
2023-01-07T02:51:40.960Z,101767.31
2023-01-07T02:53:46.788Z,101773.66
2023-01-07T02:56:00.408Z,101773.66
2023-01-07T02:58:34.977Z,101773.56
2023-01-07T03:01:06.625Z,101772.72
2023-01-07T03:03:20.707Z,101780.06
2023-01-07T03:05:45.082Z,101768.44
2023-01-07T03:08:00.606Z,101774.00
2023-01-07T03:10:09.925Z,101776.00
2023-01-07T03:12:19.461Z,101775.16
2023-01-07T03:14:26.410Z,101770.75
2023-01-07T03:16:34.900Z,101773.44
2023-01-07T03:18:43.160Z,101773.59
2023-01-07T03:20:57.215Z,101774.59
2023-01-07T03:22:59.104Z,101771.91
2023-01-07T03:25:10.795Z,101761.25
2023-01-07T03:27:14.744Z,101770.19
2023-01-07T03:29:18.773Z,101762.09
2023-01-07T03:31:22.313Z,101763.09
2023-01-07T03:33:30.461Z,101762.25
2023-01-07T03:35:34.764Z,101776.44
2023-01-07T03:37:37.174Z,101774.75
2023-01-07T03:39:40.846Z,101766.78
2023-01-07T03:41:42.381Z,101769.50
2023-01-07T03:43:43.982Z,101769.50
2023-01-07T03:45:46.673Z,101756.16
2023-01-07T03:47:50.818Z,101765.13
2023-01-07T03:49:52.388Z,101758.84
2023-01-07T03:51:55.525Z,101758.16
2023-01-07T03:53:59.189Z,101757.31
2023-01-07T03:56:00.960Z,101752.75
2023-01-07T03:58:02.740Z,101748.38
2023-01-07T04:00:09.713Z,101750.53
2023-01-07T04:02:11.448Z,101748.69
2023-01-07T04:04:13.317Z,101739.72
2023-01-07T04:06:14.815Z,101738.88
2023-01-07T04:08:17.872Z,101742.72
2023-01-07T04:10:19.638Z,101722.13
2023-01-07T04:12:21.157Z,101725.81
2023-01-07T04:14:22.727Z,101720.75
2023-01-07T04:16:24.365Z,101719.03
2023-01-07T04:18:26.159Z,101711.94
2023-01-07T04:20:27.746Z,101706.84
2023-01-07T04:22:29.340Z,101701.44
2023-01-07T04:24:34.537Z,101685.41
2023-01-07T04:26:36.435Z,101696.34
2023-01-07T04:28:38.295Z,101689.56
2023-01-07T04:30:40.542Z,101705.22
2023-01-07T04:32:46.524Z,101706.38
2023-01-07T04:34:48.314Z,101697.75
2023-01-07T04:36:52.515Z,101691.63
2023-01-07T04:38:54.129Z,101692.66
2023-01-07T04:40:57.035Z,101685.53
2023-01-07T04:42:59.852Z,101698.19
2023-01-07T04:45:01.407Z,101696.66
2023-01-07T04:47:03.077Z,101689.53
2023-01-07T04:49:04.618Z,101697.78
2023-01-07T04:51:06.504Z,101706.03
2023-01-07T04:53:08.180Z,101703.47
2023-01-07T04:55:10.213Z,101695.69
2023-01-07T04:57:13.088Z,101696.56
2023-01-07T04:59:14.563Z,101697.72
2023-01-07T05:01:16.279Z,101698.69
2023-01-07T05:03:18.086Z,101697.13
2023-01-07T05:05:19.688Z,101694.31
2023-01-07T05:07:21.406Z,101702.53
2023-01-07T05:09:22.894Z,101696.59
2023-01-07T05:11:24.709Z,101692.03
2023-01-07T05:13:27.575Z,101687.69
2023-01-07T05:15:29.258Z,101694.06
2023-01-07T05:17:30.811Z,101694.19
2023-01-07T05:19:32.425Z,101696.22
2023-01-07T05:21:34.067Z,101701.59
2023-01-07T05:23:35.589Z,101707.13
2023-01-07T05:25:39.176Z,101701.91
2023-01-07T05:27:42.567Z,101696.66
2023-01-07T05:29:45.536Z,101697.50
2023-01-07T05:31:47.313Z,101706.59
2023-01-07T05:33:51.328Z,101702.19
2023-01-07T05:35:54.418Z,101699.47
2023-01-07T05:38:01.833Z,101701.19
2023-01-07T05:40:03.827Z,101706.88
2023-01-07T05:42:05.684Z,101707.75
2023-01-07T05:44:07.489Z,101697.25
2023-01-07T05:46:10.575Z,101714.44
2023-01-07T05:48:13.051Z,101703.66
2023-01-07T05:50:15.019Z,101700.41
2023-01-07T05:52:18.553Z,101695.00
2023-01-07T05:54:21.832Z,101698.69
2023-01-07T05:56:23.497Z,101701.38
2023-01-07T05:58:31.372Z,101698.00
2023-01-07T06:00:33.093Z,101700.69
2023-01-07T06:02:36.095Z,101693.59
2023-01-07T06:04:37.719Z,101694.47
2023-01-07T06:06:41.329Z,101690.22
2023-01-07T06:08:43.124Z,101692.91
2023-01-07T06:10:46.827Z,101698.16
2023-01-07T06:12:48.497Z,101699.31
2023-01-07T06:14:52.133Z,101694.75
2023-01-07T06:16:56.144Z,101698.44
2023-01-07T06:18:59.164Z,101700.44
2023-01-07T06:21:01.130Z,101705.00
2023-01-07T06:23:03.811Z,101702.44
2023-01-07T06:25:06.039Z,101696.34
2023-01-07T06:27:09.735Z,101691.94
2023-01-07T06:29:12.825Z,101688.53
2023-01-07T06:31:16.705Z,101697.47
2023-01-07T06:33:20.205Z,101705.72
2023-01-07T06:35:23.287Z,101709.41
2023-01-07T06:37:24.807Z,101709.41
2023-01-07T06:39:26.334Z,101715.66
2023-01-07T06:41:27.830Z,101718.50
2023-01-07T06:43:35.410Z,101717.63
2023-01-07T06:45:41.374Z,101708.00
2023-01-07T06:47:43.175Z,101719.66
2023-01-07T06:49:44.804Z,101707.16
2023-01-07T06:51:48.123Z,101708.16
2023-01-07T06:53:49.820Z,101706.47
2023-01-07T06:55:51.958Z,101709.28
2023-01-07T06:57:53.637Z,101704.22
2023-01-07T06:59:55.245Z,101695.28
2023-01-07T07:01:56.960Z,101685.47
2023-01-07T07:03:58.672Z,101683.63
2023-01-07T07:06:00.763Z,101681.09
2023-01-07T07:08:04.027Z,101682.66
2023-01-07T07:10:06.842Z,101678.25
2023-01-07T07:12:09.255Z,101667.47
2023-01-07T07:14:10.859Z,101677.25
2023-01-07T07:16:12.703Z,101673.72
2023-01-07T07:18:14.313Z,101680.63
2023-01-07T07:20:16.155Z,101683.50
2023-01-07T07:22:17.750Z,101680.81
2023-01-07T07:24:23.273Z,101678.09
2023-01-07T07:26:26.739Z,101677.13
2023-01-07T07:28:28.513Z,101678.78
2023-01-07T07:30:45.483Z,101679.66
2023-01-07T07:32:49.165Z,101687.75
2023-01-07T07:34:50.731Z,101692.13
2023-01-07T07:36:52.228Z,101687.91
2023-01-07T07:38:53.994Z,101685.03
2023-01-07T07:40:57.122Z,101681.19
2023-01-07T07:43:10.356Z,101679.34
2023-01-07T07:45:15.489Z,101680.06
2023-01-07T07:47:18.864Z,101674.69
2023-01-07T07:49:20.655Z,101672.84
2023-01-07T07:51:24.319Z,101677.91
2023-01-07T07:53:26.248Z,101665.97
2023-01-07T07:55:29.624Z,101665.00
2023-01-07T07:57:32.594Z,101673.78
2023-01-07T07:59:35.950Z,101667.25
2023-01-07T08:01:37.867Z,101675.03
2023-01-07T08:03:39.615Z,101682.81
2023-01-07T08:05:42.515Z,101685.22
2023-01-07T08:07:44.146Z,101684.06
2023-01-07T08:09:45.661Z,101681.09
2023-01-07T08:11:47.230Z,101688.88
2023-01-07T08:13:50.174Z,101680.59
2023-01-07T08:15:51.970Z,101691.94
2023-01-07T08:17:58.070Z,101683.56
2023-01-07T08:19:59.591Z,101685.25
2023-01-07T08:22:01.129Z,101691.19
2023-01-07T08:24:02.890Z,101681.97
2023-01-07T08:26:04.593Z,101683.38
2023-01-07T08:28:06.523Z,101685.75
2023-01-07T08:30:11.067Z,101679.06
2023-01-07T08:32:12.644Z,101675.06
2023-01-07T08:34:14.262Z,101672.91
2023-01-07T08:36:22.727Z,101671.75
2023-01-07T08:38:24.949Z,101668.41
2023-01-07T08:40:26.584Z,101667.28
2023-01-07T08:42:28.340Z,101670.34
2023-01-07T08:44:30.319Z,101665.50
2023-01-07T08:46:33.336Z,101661.66
2023-01-07T08:48:35.580Z,101666.44
2023-01-07T08:50:37.211Z,101657.16
2023-01-07T08:52:38.826Z,101662.97
2023-01-07T08:54:40.413Z,101655.41
2023-01-07T08:56:41.952Z,101656.78
2023-01-07T08:58:43.921Z,101657.31
2023-01-07T09:00:45.648Z,101662.59
2023-01-07T09:02:48.662Z,101663.78
2023-01-07T09:04:50.411Z,101659.81
2023-01-07T09:06:52.010Z,101647.84
2023-01-07T09:08:53.616Z,101657.19
2023-01-07T09:10:55.329Z,101654.16
2023-01-07T09:12:57.021Z,101651.00
2023-01-07T09:14:58.665Z,101654.38
2023-01-07T09:17:00.287Z,101660.16
2023-01-07T09:19:03.254Z,101651.88
2023-01-07T09:21:04.941Z,101653.97
2023-01-07T09:23:06.508Z,101660.75
2023-01-07T09:25:09.347Z,101658.59
2023-01-07T09:27:10.978Z,101650.81
2023-01-07T09:29:12.564Z,101651.34
2023-01-07T09:31:14.225Z,101653.59
2023-01-07T09:33:15.937Z,101650.56
2023-01-07T09:35:19.069Z,101644.84
2023-01-07T09:37:21.044Z,101647.22
2023-01-07T09:39:22.555Z,101635.91
2023-01-07T09:41:33.742Z,101638.13
2023-01-07T09:43:59.631Z,101641.38
2023-01-07T09:46:06.220Z,101632.09
2023-01-07T09:48:17.000Z,101640.75
2023-01-07T09:50:27.964Z,101639.41
2023-01-07T09:52:35.782Z,101643.63
2023-01-07T09:54:38.678Z,101640.59
2023-01-07T09:56:40.481Z,101642.97
2023-01-07T09:58:46.753Z,101639.94
2023-01-07T10:00:58.712Z,101637.59
2023-01-07T10:03:16.280Z,101637.97
2023-01-07T10:05:35.573Z,101639.34
2023-01-07T10:07:45.788Z,101630.03
2023-01-07T10:09:59.985Z,101633.94
2023-01-07T10:12:12.263Z,101622.78
2023-01-07T10:14:35.386Z,101626.84
2023-01-07T10:16:43.554Z,101630.06
2023-01-07T10:18:54.491Z,101624.50
2023-01-07T10:21:05.405Z,101624.84
2023-01-07T10:23:11.884Z,101619.97
2023-01-07T10:25:19.615Z,101616.91
2023-01-07T10:27:29.550Z,101623.69
2023-01-07T10:29:35.596Z,101613.38
2023-01-07T10:31:37.256Z,101611.31
2023-01-07T10:33:40.530Z,101609.31
2023-01-07T10:35:42.264Z,101609.81
2023-01-07T10:37:45.294Z,101607.44
2023-01-07T10:39:58.452Z,101602.56
2023-01-07T10:42:06.817Z,101600.38
2023-01-07T10:44:32.815Z,101599.16
2023-01-07T10:46:48.861Z,101608.66
2023-01-07T10:49:18.260Z,101607.31
2023-01-07T10:51:46.534Z,101605.09
2023-01-07T10:54:00.728Z,101594.09
2023-01-07T10:56:17.435Z,101586.66
2023-01-07T10:58:19.254Z,101584.59
2023-01-07T11:00:20.973Z,101582.41
2023-01-07T11:02:24.808Z,101578.69
2023-01-07T11:04:26.951Z,101566.47
2023-01-07T11:06:38.599Z,101566.81
2023-01-07T11:08:42.296Z,101561.06
2023-01-07T11:10:45.319Z,101563.41
2023-01-07T11:12:50.477Z,101571.03
2023-01-07T11:14:54.977Z,101561.72
2023-01-07T11:17:07.329Z,101559.50
2023-01-07T11:19:10.959Z,101564.56
2023-01-07T11:21:43.624Z,101549.84
2023-01-07T11:23:36.212Z,101552.19
2023-01-07T11:25:37.898Z,101554.56
2023-01-07T11:27:45.492Z,101550.47
2023-01-07T11:29:58.462Z,101547.56
2023-01-07T11:32:01.547Z,101544.53
2023-01-07T11:34:04.583Z,101537.09
2023-01-07T11:36:08.054Z,101542.16
2023-01-07T11:38:27.107Z,101532.66
2023-01-07T11:40:31.202Z,101530.63
2023-01-07T11:42:32.751Z,101531.28
2023-01-07T11:44:35.809Z,101527.38
2023-01-07T11:46:43.495Z,101521.59
2023-01-07T11:48:49.875Z,101519.56
2023-01-07T11:50:57.992Z,101522.59
2023-01-07T11:53:01.932Z,101521.41
2023-01-07T11:55:15.828Z,101509.34
2023-01-07T11:57:23.040Z,101514.25
2023-01-07T11:59:30.271Z,101512.19
2023-01-07T12:01:42.451Z,101502.84
2023-01-07T12:04:01.085Z,101514.19
2023-01-07T12:06:08.151Z,101506.53
2023-01-07T12:08:20.134Z,101513.47
2023-01-07T12:10:28.002Z,101504.31
2023-01-07T12:12:29.701Z,101503.97
2023-01-07T12:14:33.907Z,101501.94
2023-01-07T12:16:37.668Z,101508.84
2023-01-07T12:19:01.743Z,101508.13
2023-01-07T12:21:42.375Z,101500.47
2023-01-07T12:23:54.529Z,101497.75
2023-01-07T12:26:07.955Z,101496.75
2023-01-07T12:28:13.565Z,101504.72
2023-01-07T12:30:34.922Z,101499.94
2023-01-07T12:32:49.824Z,101496.00
2023-01-07T12:34:58.150Z,101493.13
2023-01-07T12:37:28.745Z,101490.03
2023-01-07T12:39:35.601Z,101482.75
2023-01-07T12:41:41.399Z,101484.44
2023-01-07T12:43:56.489Z,101482.38
2023-01-07T12:46:02.253Z,101482.22
2023-01-07T12:48:12.583Z,101481.16
2023-01-07T12:50:17.922Z,101481.84
2023-01-07T12:52:26.567Z,101476.19
2023-01-07T12:54:42.259Z,101469.59
2023-01-07T12:56:51.357Z,101471.28
2023-01-07T12:58:58.924Z,101474.66
2023-01-07T13:01:05.961Z,101469.22
2023-01-07T13:03:23.989Z,101465.13
2023-01-07T13:05:30.206Z,101467.81
2023-01-07T13:07:40.251Z,101457.63
2023-01-07T13:09:51.270Z,101466.25
2023-01-07T13:11:57.468Z,101457.28
2023-01-07T13:14:00.376Z,101450.78
2023-01-07T13:16:02.008Z,101452.13
2023-01-07T13:18:14.558Z,101444.66
2023-01-07T13:20:21.591Z,101441.72
2023-01-07T13:22:30.574Z,101441.56
2023-01-07T13:24:56.476Z,101439.47
2023-01-07T13:27:05.649Z,101429.47
2023-01-07T13:29:20.450Z,101435.56
2023-01-07T13:31:42.765Z,101431.81
2023-01-07T13:33:52.636Z,101426.19
2023-01-07T13:36:06.587Z,101424.13
2023-01-07T13:38:25.529Z,101432.94
2023-01-07T13:40:46.146Z,101433.59
2023-01-07T13:42:52.508Z,101423.59
2023-01-07T13:45:00.350Z,101425.91
2023-01-07T13:47:03.987Z,101425.91
2023-01-07T13:49:22.639Z,101428.09
2023-01-07T13:51:27.921Z,101423.50
2023-01-07T13:53:33.794Z,101427.91
2023-01-07T13:55:41.324Z,101422.28
2023-01-07T13:57:44.947Z,101424.81
2023-01-07T13:59:48.406Z,101425.47
2023-01-07T14:02:15.622Z,101425.06
2023-01-07T14:04:46.824Z,101421.16
2023-01-07T14:06:51.576Z,101419.47
2023-01-07T14:08:56.295Z,101416.75
2023-01-07T14:10:57.885Z,101415.72
2023-01-07T14:13:11.867Z,101419.09
2023-01-07T14:15:40.907Z,101417.03
2023-01-07T14:17:57.634Z,101416.00
2023-01-07T14:20:11.160Z,101416.00
2023-01-07T14:22:21.884Z,101414.13
2023-01-07T14:24:50.616Z,101415.44
2023-01-07T14:26:59.322Z,101408.69
2023-01-07T14:29:27.022Z,101416.28
2023-01-07T14:31:30.327Z,101406.63
2023-01-07T14:33:37.217Z,101413.75
2023-01-07T14:35:42.145Z,101405.59
2023-01-07T14:37:44.249Z,101413.75
2023-01-07T14:39:46.845Z,101411.03
2023-01-07T14:42:22.036Z,101409.81
2023-01-07T14:44:29.544Z,101403.53
2023-01-07T14:46:45.956Z,101408.78
2023-01-07T14:49:12.115Z,101417.78
2023-01-07T14:51:32.026Z,101424.25
2023-01-07T14:53:52.241Z,101420.69
2023-01-07T14:56:19.217Z,101417.97
2023-01-07T14:58:32.299Z,101414.59
2023-01-07T15:00:56.959Z,101414.41
2023-01-07T15:03:20.743Z,101419.84
2023-01-07T15:05:48.555Z,101422.56
2023-01-07T15:07:57.169Z,101415.44
2023-01-07T15:10:02.099Z,101407.50
2023-01-07T15:12:11.903Z,101405.59
2023-01-07T15:14:22.890Z,101401.00
2023-01-07T15:16:24.769Z,101403.91
2023-01-07T15:18:27.405Z,101405.78
2023-01-07T15:20:44.185Z,101403.91
2023-01-07T15:23:00.800Z,101404.09
2023-01-07T15:25:10.672Z,101404.31
2023-01-07T15:27:19.146Z,101400.75
2023-01-07T15:29:30.743Z,101400.53
2023-01-07T15:31:41.273Z,101401.59
2023-01-07T15:33:56.116Z,101405.97
2023-01-07T15:35:58.027Z,101395.47
2023-01-07T15:38:20.517Z,101405.31
2023-01-07T15:40:25.555Z,101400.06
2023-01-07T15:42:27.582Z,101398.19
2023-01-07T15:44:41.051Z,101392.59
2023-01-07T15:46:42.867Z,101401.75
2023-01-07T15:48:44.632Z,101403.63
2023-01-07T15:50:46.250Z,101400.06
2023-01-07T15:52:49.052Z,101393.78
2023-01-07T15:54:53.833Z,101387.72
2023-01-07T15:56:59.869Z,101393.78
2023-01-07T15:59:06.438Z,101397.56
2023-01-07T16:01:15.761Z,101391.91
2023-01-07T16:03:19.099Z,101394.63
2023-01-07T16:05:20.956Z,101391.06
2023-01-07T16:07:27.354Z,101389.19
2023-01-07T16:09:29.678Z,101391.06
2023-01-07T16:11:32.636Z,101395.66
2023-01-07T16:13:36.761Z,101387.50
2023-01-07T16:15:39.364Z,101381.44
2023-01-07T16:17:49.812Z,101376.63
2023-01-07T16:20:10.148Z,101374.75
2023-01-07T16:22:15.731Z,101378.72
2023-01-07T16:24:17.870Z,101378.88
2023-01-07T16:26:23.173Z,101374.50
2023-01-07T16:28:29.804Z,101374.50
2023-01-07T16:30:40.139Z,101372.81
2023-01-07T16:32:42.279Z,101367.56
2023-01-07T16:35:05.143Z,101373.44
2023-01-07T16:37:14.940Z,101366.53
2023-01-07T16:39:22.812Z,101359.41
2023-01-07T16:41:26.837Z,101362.31
2023-01-07T16:43:45.218Z,101355.88
2023-01-07T16:46:09.255Z,101362.31
2023-01-07T16:48:19.622Z,101367.09
2023-01-07T16:50:36.039Z,101349.97
2023-01-07T16:52:49.565Z,101351.84
2023-01-07T16:54:51.108Z,101347.59
2023-01-07T16:56:54.858Z,101354.09
2023-01-07T16:58:57.904Z,101348.81
2023-01-07T17:01:02.038Z,101350.91
2023-01-07T17:03:03.964Z,101343.78
2023-01-07T17:05:18.598Z,101347.34
2023-01-07T17:07:24.960Z,101350.44
2023-01-07T17:09:29.055Z,101344.34
2023-01-07T17:11:35.164Z,101346.19
2023-01-07T17:13:39.124Z,101339.06
2023-01-07T17:15:42.976Z,101338.44
2023-01-07T17:17:44.517Z,101334.03
2023-01-07T17:19:52.156Z,101329.19
2023-01-07T17:21:54.710Z,101335.44
2023-01-07T17:23:56.384Z,101330.19
2023-01-07T17:26:00.783Z,101325.78
2023-01-07T17:28:08.217Z,101323.25
2023-01-07T17:30:15.715Z,101326.16
2023-01-07T17:32:18.828Z,101321.97
2023-01-07T17:34:20.528Z,101328.41
2023-01-07T17:36:23.770Z,101320.66
2023-01-07T17:38:25.639Z,101326.06
2023-01-07T17:40:27.294Z,101328.13
2023-01-07T17:42:32.178Z,101320.34
2023-01-07T17:44:33.861Z,101325.78
2023-01-07T17:46:35.542Z,101320.72
2023-01-07T17:48:38.860Z,101318.19
2023-01-07T17:50:41.937Z,101315.47
2023-01-07T17:52:47.407Z,101311.09
2023-01-07T17:54:48.936Z,101313.13
2023-01-07T17:56:52.649Z,101318.56
2023-01-07T17:58:56.084Z,101310.59
2023-01-07T18:00:59.970Z,101316.22
2023-01-07T18:03:01.924Z,101309.09
2023-01-07T18:05:05.881Z,101306.59
2023-01-07T18:07:09.028Z,101308.47
2023-01-07T18:09:10.753Z,101309.47
2023-01-07T18:11:14.982Z,101310.72
2023-01-07T18:13:16.493Z,101301.72
2023-01-07T18:15:21.584Z,101301.50
2023-01-07T18:17:23.148Z,101306.31
2023-01-07T18:19:24.668Z,101303.75
2023-01-07T18:21:27.510Z,101304.59
2023-01-07T18:23:29.062Z,101296.84
2023-01-07T18:25:31.707Z,101295.81
2023-01-07T18:27:33.240Z,101292.44
2023-01-07T18:29:34.748Z,101296.19
2023-01-07T18:31:43.264Z,101290.75
2023-01-07T18:33:44.896Z,101294.28
2023-01-07T18:35:47.411Z,101298.06
2023-01-07T18:37:50.796Z,101290.94
2023-01-07T18:39:52.483Z,101283.66
2023-01-07T18:41:54.183Z,101282.97
2023-01-07T18:43:55.768Z,101278.59
2023-01-07T18:45:57.544Z,101276.72
2023-01-07T18:47:59.163Z,101282.16
2023-01-07T18:50:00.779Z,101276.72
2023-01-07T18:52:02.458Z,101274.00
2023-01-07T18:54:05.967Z,101263.31
2023-01-07T18:56:08.016Z,101261.63
2023-01-07T18:58:12.499Z,101262.47
2023-01-07T19:00:15.105Z,101262.47
2023-01-07T19:02:18.630Z,101249.94
2023-01-07T19:04:20.148Z,101252.66
2023-01-07T19:06:21.817Z,101251.84
2023-01-07T19:08:23.290Z,101249.13
2023-01-07T19:10:26.639Z,101245.72
2023-01-07T19:12:29.103Z,101253.69
2023-01-07T19:14:33.728Z,101251.16
2023-01-07T19:16:37.702Z,101254.72
2023-01-07T19:18:41.054Z,101254.72
2023-01-07T19:20:42.676Z,101249.28
2023-01-07T19:22:44.215Z,101249.47
2023-01-07T19:24:46.121Z,101251.16
2023-01-07T19:26:49.128Z,101252.19
2023-01-07T19:28:50.675Z,101232.34
2023-01-07T19:30:52.211Z,101244.03
2023-01-07T19:32:54.130Z,101249.47
2023-01-07T19:34:55.877Z,101238.81
2023-01-07T19:36:57.461Z,101246.94
2023-01-07T19:38:59.055Z,101243.19
2023-01-07T19:41:00.692Z,101239.66
2023-01-07T19:43:03.975Z,101237.75
2023-01-07T19:45:06.803Z,101236.75
2023-01-07T19:47:08.395Z,101228.81
2023-01-07T19:49:11.555Z,101228.81
2023-01-07T19:51:13.495Z,101224.19
2023-01-07T19:53:15.060Z,101228.81
2023-01-07T19:55:16.522Z,101221.47
2023-01-07T19:57:18.106Z,101217.09
2023-01-07T19:59:20.987Z,101216.91
2023-01-07T20:01:23.728Z,101219.59
2023-01-07T20:03:25.294Z,101211.28
2023-01-07T20:05:28.888Z,101207.75
2023-01-07T20:07:30.481Z,101203.16
2023-01-07T20:09:32.012Z,101202.31
2023-01-07T20:11:33.681Z,101197.72
2023-01-07T20:13:37.057Z,101194.16
2023-01-07T20:15:39.929Z,101188.91
2023-01-07T20:17:41.890Z,101187.25
2023-01-07T20:19:43.683Z,101182.84
2023-01-07T20:21:45.265Z,101180.13
2023-01-07T20:23:47.452Z,101179.28
2023-01-07T20:25:49.209Z,101170.69
2023-01-07T20:27:50.947Z,101176.31
2023-01-07T20:29:52.445Z,101172.75
2023-01-07T20:31:55.805Z,101166.66
2023-01-07T20:33:57.790Z,101166.88
2023-01-07T20:36:00.057Z,101160.13
2023-01-07T20:38:01.729Z,101157.41
2023-01-07T20:40:03.934Z,101163.00
2023-01-07T20:42:05.616Z,101161.53
2023-01-07T20:44:07.636Z,101167.13
2023-01-07T20:46:10.118Z,101171.91
2023-01-07T20:48:13.747Z,101164.78
2023-01-07T20:50:15.540Z,101163.09
2023-01-07T20:52:17.302Z,101164.31
2023-01-07T20:54:19.138Z,101162.25
2023-01-07T20:56:24.600Z,101156.00
2023-01-07T20:58:26.725Z,101158.91
2023-01-07T21:00:31.277Z,101156.19
2023-01-07T21:02:33.064Z,101158.03
2023-01-07T21:04:37.056Z,101154.50
2023-01-07T21:06:38.615Z,101146.56
2023-01-07T21:08:40.612Z,101154.50
2023-01-07T21:10:42.442Z,101150.13
2023-01-07T21:12:44.623Z,101150.13
2023-01-07T21:14:46.444Z,101142.78
2023-01-07T21:16:48.061Z,101142.78
2023-01-07T21:18:49.676Z,101136.56
2023-01-07T21:20:53.349Z,101143.63
2023-01-07T21:22:55.197Z,101135.50
2023-01-07T21:24:56.713Z,101127.38
2023-01-07T21:26:58.334Z,101126.53
2023-01-07T21:28:59.928Z,101123.63
2023-01-07T21:31:02.677Z,101107.34
2023-01-07T21:33:05.846Z,101105.50
2023-01-07T21:35:08.483Z,101108.19
2023-01-07T21:37:11.431Z,101104.47
2023-01-07T21:39:13.278Z,101098.00
2023-01-07T21:41:16.172Z,101094.44
2023-01-07T21:43:17.795Z,101094.25
2023-01-07T21:45:19.500Z,101094.91
2023-01-07T21:47:21.130Z,101088.66
2023-01-07T21:49:22.638Z,101101.16
2023-01-07T21:51:25.821Z,101081.34
2023-01-07T21:53:29.168Z,101079.69
2023-01-07T21:55:30.847Z,101082.19
2023-01-07T21:57:32.420Z,101081.34
2023-01-07T21:59:34.225Z,101078.63
2023-01-07T22:01:36.340Z,101085.94
2023-01-07T22:03:40.198Z,101076.75
2023-01-07T22:05:41.757Z,101079.28
2023-01-07T22:07:43.301Z,101077.59
2023-01-07T22:09:46.549Z,101084.72
2023-01-07T22:11:48.028Z,101076.59
2023-01-07T22:13:50.229Z,101070.31
2023-01-07T22:15:51.801Z,101068.44
2023-01-07T22:17:53.292Z,101066.56
2023-01-07T22:19:55.835Z,101055.50
2023-01-07T22:21:57.384Z,101069.28
2023-01-07T22:23:58.893Z,101050.31
2023-01-07T22:26:06.182Z,101051.78
2023-01-07T22:28:07.932Z,101047.38
2023-01-07T22:30:13.188Z,101047.38
2023-01-07T22:32:14.648Z,101041.94
2023-01-07T22:34:16.300Z,101043.66
2023-01-07T22:36:23.498Z,101049.06
2023-01-07T22:38:26.966Z,101035.50
2023-01-07T22:40:31.891Z,101029.06
2023-01-07T22:42:39.936Z,101019.22
2023-01-07T22:44:45.814Z,101016.34
2023-01-07T22:46:51.127Z,101011.75
2023-01-07T22:48:53.345Z,101000.06
2023-01-07T22:51:00.534Z,100990.88
2023-01-07T22:53:02.409Z,100984.63
2023-01-07T22:55:05.016Z,100984.63
2023-01-07T22:57:09.926Z,100983.56
2023-01-07T22:59:22.129Z,100988.81
2023-01-07T23:01:23.655Z,100980.69
2023-01-07T23:03:25.467Z,100983.41
2023-01-07T23:05:27.025Z,100984.03
2023-01-07T23:07:28.537Z,100968.97
2023-01-07T23:09:30.231Z,100978.59
2023-01-07T23:11:32.134Z,100975.88
2023-01-07T23:13:34.005Z,100975.03
2023-01-07T23:15:38.257Z,100969.44
2023-01-07T23:17:39.758Z,100966.53
2023-01-07T23:19:41.279Z,100965.88
2023-01-07T23:21:45.375Z,100955.69
2023-01-07T23:23:46.828Z,100950.28
2023-01-07T23:25:50.444Z,100947.56
2023-01-07T23:27:51.977Z,100941.06
2023-01-07T23:29:53.540Z,100936.69
2023-01-07T23:31:56.780Z,100939.41
2023-01-07T23:33:58.328Z,100925.84
2023-01-07T23:36:03.115Z,100918.56
2023-01-07T23:38:04.652Z,100922.09
2023-01-07T23:40:08.214Z,100925.00
2023-01-07T23:42:09.795Z,100933.16
2023-01-07T23:44:11.321Z,100934.00
2023-01-07T23:46:13.029Z,100942.31
2023-01-07T23:48:15.933Z,100938.56
2023-01-07T23:50:17.551Z,100939.59
2023-01-07T23:52:19.505Z,100939.59
2023-01-07T23:54:21.251Z,100941.28
2023-01-07T23:56:22.740Z,100944.19
2023-01-07T23:58:25.118Z,100934.34
